Belmont, North Carolina
Current Conditions -  °F | °C
As of 5:52 AM on Friday 28 Nov 2014 (Local Time) from KCLT Reporting Station
Clear Clear  
Wind Chill: -5°   Ceiling: Unl
Heat Index: -2°   Visibility: 10mi
Dew Point: -7°   Wind: 6mph
Humidity: 67%   Direction: 310°NW
Pressure: 30.33"   Gusts: NA
Location:  35.24°N, 81.04°W
Report Text: KCLT 281052Z 31005KT 10SM CLR M02/M07 A3033 RMK AO2 SLP275 T10171072
Loading
Personal Weather Stations






























Interactive Weather Map New forecast layout! Learn more

10-Day Weather Forecast

Advertisements
Track Severe Weather on mobile